Terminal Aerodrome Forecast
Issued by NWS

Home | Current Version | Previous Version | Graphics & Text | Print | Product List | Glossary On
Versions: 1 2 3 4 5 6 7 8 9 10 11 12 13 14 15 16 17 18 19
134
FTUS43 KGRB 252325
TAFAUW
TAF
KAUW 252325Z 2600/2624 08010G18KT P6SM VCSH OVC015
     FM260100 08010KT 5SM -RA BR OVC008
      TEMPO 2601/2603 6SM -RA OVC012
     FM261000 07007KT 2SM -DZ BR OVC003
     FM261800 04005KT 4SM -SHRA BR OVC005=

USA.gov is the U.S. government's official web portal to all federal, state and local government web resources and services.